Time;durP1;ratioP1;P1;durP2;ratioP2;P2;SDS_P1;SDS_P2;PMS_P1;PMS_P2;Temp;Humidity;BMP_temperature;BMP_pressure;BME280_temperature;BME280_humidity;BME280_pressure;Samples;Min_cycle;Max_cycle;Signal;HPM_P1;HPM_P2
2021/11/17 02:29:13;;;;;;;21.55;9.73;;;5.10;99.90;;;;;;20872136;28;20033;-80
2021/11/17 02:39:30;;;;;;;28.38;11.88;;;5.10;99.90;;;;;;20865525;28;20037;-78
2021/11/17 02:49:43;;;;;;;35.95;12.93;;;5.10;99.90;;;;;;20860516;28;20055;-80
2021/11/17 03:00:16;;;;;;;31.52;12.02;;;5.00;99.90;;;;;;20861108;28;20033;-81
2021/11/17 03:10:44;;;;;;;32.95;12.77;;;5.00;99.90;;;;;;20851529;28;20099;-80
2021/11/17 03:21:02;;;;;;;29.23;12.85;;;5.00;99.90;;;;;;20857553;28;20061;-80
2021/11/17 03:41:20;;;;;;;37.30;12.80;;;4.90;99.90;;;;;;20837263;28;20049;-78
2021/11/17 03:51:46;;;;;;;29.40;12.65;;;4.90;99.90;;;;;;20919055;28;20087;-79
2021/11/17 04:01:49;;;;;;;25.35;10.55;;;4.90;99.90;;;;;;20919818;28;20115;-78
2021/11/17 04:12:12;;;;;;;24.45;10.93;;;4.90;99.90;;;;;;20919469;28;20394;-78
2021/11/17 04:22:24;;;;;;;22.23;9.45;;;4.90;99.90;;;;;;20900928;28;20037;-78
2021/11/17 04:32:28;;;;;;;24.27;10.40;;;4.90;99.90;;;;;;20912830;28;20123;-75
2021/11/17 04:42:38;;;;;;;21.67;9.43;;;4.90;99.90;;;;;;20907897;28;20391;-75
2021/11/17 04:52:54;;;;;;;24.80;8.63;;;4.80;99.90;;;;;;20905953;28;20082;-75
2021/11/17 05:03:18;;;;;;;18.42;8.57;;;4.80;99.90;;;;;;20905789;28;20061;-75
2021/11/17 05:13:27;;;;;;;19.90;8.27;;;4.80;99.90;;;;;;20883570;28;20064;-75
2021/11/17 05:23:40;;;;;;;18.90;8.48;;;4.80;99.90;;;;;;20905217;28;20112;-75
2021/11/17 05:33:53;;;;;;;18.40;7.47;;;4.70;99.90;;;;;;20904217;28;20174;-75
2021/11/17 05:44:09;;;;;;;20.08;7.95;;;4.70;99.90;;;;;;20905256;28;20040;-75
2021/11/17 05:54:30;;;;;;;19.33;8.00;;;4.60;99.90;;;;;;20872549;28;20068;-75
2021/11/17 06:04:31;;;;;;;17.60;7.73;;;4.60;99.90;;;;;;20830761;28;20133;-75
2021/11/17 06:14:52;;;;;;;14.53;7.53;;;4.60;99.90;;;;;;20843230;28;20030;-78
2021/11/17 06:24:54;;;;;;;17.43;7.10;;;4.60;99.90;;;;;;20843000;28;20026;-78
2021/11/17 06:34:58;;;;;;;13.85;7.22;;;4.60;99.90;;;;;;20843564;28;20495;-78
2021/11/17 06:45:05;;;;;;;15.82;7.70;;;4.70;99.90;;;;;;20843107;28;20079;-78
2021/11/17 06:55:07;;;;;;;17.42;8.27;;;4.60;99.90;;;;;;20843536;28;20039;-79
2021/11/17 07:05:10;;;;;;;20.38;8.18;;;4.60;99.90;;;;;;20844553;28;20377;-78
2021/11/17 07:15:13;;;;;;;15.10;7.97;;;4.60;99.90;;;;;;20841272;28;20030;-78
2021/11/17 07:25:19;;;;;;;22.50;9.88;;;4.70;99.90;;;;;;20841802;28;20037;-78
2021/11/17 07:35:22;;;;;;;22.25;10.13;;;4.70;99.90;;;;;;20840880;28;20057;-78
2021/11/17 07:45:24;;;;;;;18.65;8.32;;;4.80;99.90;;;;;;20839569;28;20041;-78
2021/11/17 07:55:26;;;;;;;20.02;8.95;;;4.90;99.90;;;;;;20838959;28;20085;-78
2021/11/17 08:05:27;;;;;;;15.30;7.95;;;4.90;99.90;;;;;;20838306;28;20484;-78
2021/11/17 08:15:28;;;;;;;17.50;6.53;;;4.90;99.90;;;;;;20837161;28;20021;-78
2021/11/17 08:25:33;;;;;;;16.95;10.13;;;5.00;99.90;;;;;;20833097;28;20036;-78
2021/11/17 08:35:35;;;;;;;12.73;6.75;;;5.00;99.90;;;;;;20836012;28;20041;-78
2021/11/17 08:45:39;;;;;;;14.75;6.35;;;5.10;99.90;;;;;;20833731;28;20033;-78
2021/11/17 08:55:43;;;;;;;8.07;4.47;;;5.10;99.90;;;;;;20833057;28;20107;-78
2021/11/17 09:05:50;;;;;;;13.32;5.57;;;5.10;99.90;;;;;;20832780;28;20040;-79
2021/11/17 09:15:54;;;;;;;13.48;6.13;;;5.10;99.90;;;;;;20834492;28;20089;-78
2021/11/17 09:25:57;;;;;;;10.60;4.70;;;5.10;99.90;;;;;;20891041;28;20040;-79
2021/11/17 09:35:58;;;;;;;8.77;4.20;;;5.10;99.90;;;;;;20938317;22;20561;-79
2021/11/17 09:46:00;;;;;;;7.82;3.20;;;5.00;99.90;;;;;;20922579;28;20137;-80
2021/11/17 09:56:07;;;;;;;1.95;1.00;;;5.10;99.90;;;;;;20947563;28;20140;-82
2021/11/17 10:06:46;;;;;;;2.15;1.10;;;5.40;99.90;;;;;;20955533;28;20028;-78
2021/11/17 10:16:44;;;;;;;1.77;0.80;;;5.80;99.90;;;;;;21022403;28;20036;-79
2021/11/17 10:26:48;;;;;;;0.60;0.60;;;5.90;99.90;;;;;;21021156;28;20039;-80
2021/11/17 10:36:49;;;;;;;3.42;1.20;;;6.20;99.90;;;;;;21002765;28;20306;-79
2021/11/17 10:46:55;;;;;;;1.50;0.93;;;6.20;99.90;;;;;;21004743;28;20036;-80
2021/11/17 10:57:10;;;;;;;3.95;0.80;;;6.60;99.90;;;;;;20992387;28;20032;-79
2021/11/17 11:07:10;;;;;;;1.20;0.77;;;6.20;99.90;;;;;;21019447;28;20028;-79
2021/11/17 11:17:38;;;;;;;1.80;0.90;;;6.10;99.90;;;;;;21003229;28;20041;-79
2021/11/17 11:27:39;;;;;;;1.98;1.05;;;6.00;99.90;;;;;;21004950;28;20096;-80
2021/11/17 11:37:40;;;;;;;0.63;0.57;;;6.10;99.90;;;;;;20987908;28;20040;-80
2021/11/17 11:47:51;;;;;;;1.63;1.17;;;7.00;99.90;;;;;;20994004;28;20540;-80
2021/11/17 11:58:23;;;;;;;3.50;1.77;;;6.70;99.90;;;;;;21026838;28;20036;-79
2021/11/17 12:08:30;;;;;;;5.03;2.38;;;6.30;99.90;;;;;;21007005;28;20040;-80
2021/11/17 12:18:55;;;;;;;15.57;5.30;;;6.40;99.90;;;;;;21032245;28;20043;-79
2021/11/17 12:29:10;;;;;;;1.70;1.25;;;6.30;99.90;;;;;;20999972;28;20406;-79
2021/11/17 12:39:16;;;;;;;0.85;0.70;;;6.20;99.90;;;;;;21016166;28;20029;-82
2021/11/17 12:49:22;;;;;;;0.80;0.60;;;6.20;99.90;;;;;;20979380;28;20039;-82
2021/11/17 12:59:41;;;;;;;0.80;0.55;;;6.30;99.90;;;;;;21017755;28;20036;-79
2021/11/17 13:09:42;;;;;;;0.82;0.50;;;6.10;99.90;;;;;;21017660;28;20044;-81
2021/11/17 13:19:51;;;;;;;1.17;0.93;;;6.20;99.90;;;;;;21025242;28;20056;-81
2021/11/17 13:30:27;;;;;;;2.80;1.30;;;5.90;99.90;;;;;;21024262;28;20029;-78
2021/11/17 13:40:28;;;;;;;2.30;1.35;;;5.60;99.90;;;;;;21023834;28;20025;-82
2021/11/17 13:50:35;;;;;;;3.13;1.40;;;5.60;99.90;;;;;;20995848;28;20067;-78
2021/11/17 14:00:42;;;;;;;3.40;1.75;;;5.60;99.90;;;;;;21006923;28;20024;-77
2021/11/17 14:10:43;;;;;;;2.13;1.67;;;5.60;99.90;;;;;;20991920;28;20414;-78
2021/11/17 14:20:46;;;;;;;2.88;1.80;;;5.60;99.90;;;;;;21003478;28;20063;-76
2021/11/17 14:30:53;;;;;;;3.85;1.92;;;5.70;99.90;;;;;;20986947;28;20090;-78
2021/11/17 14:40:54;;;;;;;3.53;1.83;;;5.70;99.90;;;;;;21001191;28;20036;-78
2021/11/17 14:50:56;;;;;;;3.00;1.73;;;5.60;99.90;;;;;;20901941;28;20032;-77
2021/11/17 15:00:59;;;;;;;2.40;1.67;;;5.50;99.90;;;;;;20918089;28;20044;-78
2021/11/17 15:11:00;;;;;;;14.48;7.20;;;5.50;99.90;;;;;;20922317;28;20098;-79
2021/11/17 15:21:00;;;;;;;14.75;4.38;;;5.60;99.90;;;;;;20927799;28;20025;-79
2021/11/17 15:31:04;;;;;;;;;;;5.60;99.90;;;;;;20919168;28;20037;-78
2021/11/17 15:41:08;;;;;;;5.10;2.60;;;5.60;99.90;;;;;;20978491;22;19927;-78
2021/11/17 15:51:20;;;;;;;6.93;3.75;;;5.60;99.90;;;;;;20947206;28;20043;-77
2021/11/17 16:01:20;;;;;;;;;;;5.50;99.90;;;;;;20924117;28;20041;-77
2021/11/17 16:11:21;;;;;;;2.88;2.15;;;5.50;99.90;;;;;;20939221;28;20330;-77
2021/11/17 16:21:23;;;;;;;;;;;5.60;99.90;;;;;;20909903;28;20033;-77
2021/11/17 16:31:28;;;;;;;5.57;3.13;;;5.50;99.90;;;;;;20899556;28;19923;-76
2021/11/17 16:41:29;;;;;;;11.88;5.97;;;5.50;99.90;;;;;;20884635;28;20033;-76
2021/11/17 16:51:30;;;;;;;12.27;4.95;;;5.50;99.90;;;;;;20872913;28;20039;-76
2021/11/17 17:01:31;;;;;;;6.23;3.20;;;5.40;99.90;;;;;;20881579;28;20878;-74
2021/11/17 17:11:31;;;;;;;7.23;3.70;;;5.50;99.90;;;;;;20870258;28;20090;-75
2021/11/17 17:21:34;;;;;;;9.80;3.87;;;5.50;99.90;;;;;;20873513;28;20036;-76
2021/11/17 17:31:35;;;;;;;6.07;3.45;;;5.40;99.90;;;;;;20877824;28;20029;-77
2021/11/17 17:41:36;;;;;;;7.32;2.92;;;5.40;99.90;;;;;;20877963;28;20036;-77
2021/11/17 17:51:36;;;;;;;27.08;12.60;;;5.40;99.90;;;;;;20874610;28;20462;-76
2021/11/17 18:01:37;;;;;;;7.20;4.13;;;5.30;99.90;;;;;;20926034;28;20031;-77
2021/11/17 18:11:38;;;;;;;11.57;5.93;;;5.40;99.90;;;;;;20945205;28;20030;-78
2021/11/17 18:21:40;;;;;;;9.53;4.30;;;5.30;99.90;;;;;;20956393;28;20351;-78
2021/11/17 18:31:41;;;;;;;7.40;3.55;;;5.40;99.90;;;;;;20961653;28;20379;-78
2021/11/17 18:41:56;;;;;;;8.55;3.75;;;5.40;99.90;;;;;;20961945;28;20029;-78
2021/11/17 18:51:58;;;;;;;8.55;3.20;;;5.40;99.90;;;;;;20964951;28;20035;-78
2021/11/17 19:02:19;;;;;;;8.63;4.45;;;5.30;99.90;;;;;;20963125;28;20074;-78
2021/11/17 19:12:20;;;;;;;13.13;3.27;;;5.30;99.90;;;;;;20943639;28;20043;-78
2021/11/17 19:22:21;;;;;;;5.53;3.70;;;5.30;99.90;;;;;;20958288;28;20033;-77
2021/11/17 19:32:22;;;;;;;6.05;3.53;;;5.30;99.90;;;;;;20958892;28;20036;-78
2021/11/17 19:42:26;;;;;;;15.15;6.47;;;5.30;99.90;;;;;;20943158;28;20041;-78
2021/11/17 19:52:28;;;;;;;5.65;3.58;;;5.30;99.90;;;;;;20956884;28;20037;-78
2021/11/17 20:02:30;;;;;;;6.10;3.83;;;5.10;99.90;;;;;;20954865;28;20025;-78
2021/11/17 20:12:31;;;;;;;5.88;3.83;;;4.50;99.90;;;;;;20950835;28;20025;-78
2021/11/17 20:22:34;;;;;;;7.53;4.20;;;4.40;99.90;;;;;;20951092;28;20033;-78
2021/11/17 20:32:36;;;;;;;8.90;4.50;;;4.30;99.90;;;;;;20946184;28;20039;-78
2021/11/17 20:42:38;;;;;;;10.30;5.63;;;4.20;99.90;;;;;;20952125;28;20095;-78
2021/11/17 20:52:39;;;;;;;12.13;6.47;;;4.20;99.90;;;;;;20948795;28;20029;-78
2021/11/17 21:02:41;;;;;;;15.13;6.57;;;4.20;99.90;;;;;;20951687;28;20048;-78
2021/11/17 21:12:45;;;;;;;11.93;5.78;;;4.20;99.90;;;;;;20947281;28;20029;-79
2021/11/17 21:22:47;;;;;;;8.50;5.32;;;4.30;99.90;;;;;;20944361;28;20037;-79
2021/11/17 21:32:48;;;;;;;10.45;5.90;;;4.40;99.90;;;;;;20966970;23;20033;-80
2021/11/17 21:42:49;;;;;;;10.55;6.07;;;4.40;99.90;;;;;;20854993;28;20047;-81
2021/11/17 21:52:50;;;;;;;10.05;5.22;;;4.60;99.90;;;;;;20806986;28;20040;-79
2021/11/17 22:02:52;;;;;;;;;;;4.60;99.90;;;;;;20834242;28;20072;-80
2021/11/17 22:12:52;;;;;;;10.02;5.60;;;4.40;99.90;;;;;;20807782;28;20449;-79
2021/11/17 22:22:53;;;;;;;11.23;6.45;;;4.40;99.90;;;;;;20814584;28;20022;-81
2021/11/17 22:32:56;;;;;;;15.18;7.45;;;4.30;99.90;;;;;;20787293;28;20077;-79
2021/11/17 22:42:58;;;;;;;11.18;6.22;;;4.20;99.90;;;;;;20794642;28;20037;-80
2021/11/17 22:52:59;;;;;;;10.25;5.97;;;4.20;99.90;;;;;;20809793;28;20029;-80
2021/11/17 23:03:00;;;;;;;7.72;4.85;;;4.30;99.90;;;;;;20795651;28;20029;-78
2021/11/17 23:13:02;;;;;;;7.53;4.95;;;4.40;99.90;;;;;;20795692;28;20115;-79
2021/11/17 23:23:07;;;;;;;19.58;9.05;;;4.50;99.90;;;;;;20812634;28;20507;-80
2021/11/17 23:33:10;;;;;;;9.75;5.75;;;4.60;99.90;;;;;;20792420;28;20523;-79
2021/11/17 23:43:12;;;;;;;10.30;4.85;;;4.60;99.90;;;;;;20772530;28;20045;-80
2021/11/17 23:53:25;;;;;;;9.32;5.05;;;4.50;99.90;;;;;;20771479;28;20034;-81
